createdAt,value
2023-12-19T00:02:01.449Z,95666.91
2023-12-19T00:05:05.058Z,95682.50
2023-12-19T00:08:11.411Z,95679.03
2023-12-19T00:11:14.807Z,95681.25
2023-12-19T00:14:18.074Z,95682.03
2023-12-19T00:17:22.433Z,95685.91
2023-12-19T00:20:27.241Z,95687.63
2023-12-19T00:23:32.566Z,95685.72
2023-12-19T00:26:35.935Z,95686.78
2023-12-19T00:29:39.399Z,95692.63
2023-12-19T00:32:43.785Z,95704.56
2023-12-19T00:35:48.054Z,95696.72
2023-12-19T00:38:52.075Z,95688.03
2023-12-19T00:41:56.292Z,95699.59
2023-12-19T00:45:00.214Z,95691.66
2023-12-19T00:48:04.389Z,95702.03
2023-12-19T00:51:12.325Z,95702.56
2023-12-19T00:54:16.397Z,95697.75
2023-12-19T00:57:19.763Z,95696.56
2023-12-19T01:00:23.803Z,95695.72
2023-12-19T01:03:27.549Z,95700.38
2023-12-19T01:06:32.237Z,95690.41
2023-12-19T01:09:36.013Z,95689.31
2023-12-19T01:12:42.570Z,95690.91
2023-12-19T01:15:46.662Z,95684.81
2023-12-19T01:18:50.606Z,95685.78
2023-12-19T01:21:54.687Z,95694.25
2023-12-19T01:24:58.755Z,95698.13
2023-12-19T01:28:10.893Z,95698.66
2023-12-19T01:31:16.559Z,95697.13
2023-12-19T01:34:20.517Z,95701.09
2023-12-19T01:37:24.804Z,95697.97
2023-12-19T01:40:30.560Z,95697.34
2023-12-19T01:43:34.525Z,95705.50
2023-12-19T01:46:38.161Z,95705.03
2023-12-19T01:49:42.480Z,95707.66
2023-12-19T01:52:51.151Z,95702.41
2023-12-19T01:55:58.222Z,95709.16
2023-12-19T01:59:02.199Z,95705.31
2023-12-19T02:02:06.329Z,95709.91
2023-12-19T02:05:10.364Z,95720.41
2023-12-19T02:08:14.257Z,95710.59
2023-12-19T02:11:18.100Z,95713.56
2023-12-19T02:14:22.244Z,95719.16
2023-12-19T02:17:26.362Z,95720.00
2023-12-19T02:20:30.613Z,95714.41
2023-12-19T02:23:34.182Z,95733.94
2023-12-19T02:26:38.561Z,95733.22
2023-12-19T02:29:42.601Z,95726.28
2023-12-19T02:32:47.762Z,95716.66
2023-12-19T02:35:51.103Z,95710.69
2023-12-19T02:38:54.980Z,95720.78
2023-12-19T02:41:58.529Z,95716.28
2023-12-19T02:45:02.451Z,95717.06
2023-12-19T02:48:06.826Z,95713.56
2023-12-19T02:51:10.424Z,95714.53
2023-12-19T02:54:13.756Z,95718.72
2023-12-19T02:57:17.143Z,95714.44
2023-12-19T03:00:20.809Z,95719.53
2023-12-19T03:03:24.841Z,95713.06
2023-12-19T03:06:29.067Z,95720.16
2023-12-19T03:09:32.850Z,95722.31
2023-12-19T03:12:37.696Z,95729.75
2023-12-19T03:15:40.998Z,95721.41
2023-12-19T03:18:44.649Z,95722.97
2023-12-19T03:21:48.038Z,95723.16
2023-12-19T03:24:51.870Z,95719.13
2023-12-19T03:27:57.269Z,95721.69
2023-12-19T03:31:01.757Z,95718.19
2023-12-19T03:34:05.455Z,95727.31
2023-12-19T03:37:09.747Z,95734.47
2023-12-19T03:40:13.326Z,95737.53
2023-12-19T03:43:16.920Z,95722.13
2023-12-19T03:46:20.793Z,95731.06
2023-12-19T03:49:24.526Z,95724.50
2023-12-19T03:52:28.363Z,95725.16
2023-12-19T03:55:31.734Z,95717.75
2023-12-19T03:58:35.738Z,95713.38
2023-12-19T04:01:46.536Z,95719.41
2023-12-19T04:04:49.603Z,95721.13
2023-12-19T04:07:55.999Z,95719.69
2023-12-19T04:10:59.683Z,95720.75
2023-12-19T04:14:03.328Z,95717.91
2023-12-19T04:17:07.187Z,95721.38
2023-12-19T04:20:12.628Z,95715.59
2023-12-19T04:23:17.445Z,95719.66
2023-12-19T04:26:22.415Z,95713.31
2023-12-19T04:29:26.187Z,95714.59
2023-12-19T04:32:29.113Z,95715.09
2023-12-19T04:35:32.671Z,95709.44
2023-12-19T04:38:35.912Z,95710.91
2023-12-19T04:41:40.598Z,95709.25
2023-12-19T04:44:44.632Z,95712.06
2023-12-19T04:47:47.819Z,95707.44
2023-12-19T04:50:52.010Z,95699.81
2023-12-19T04:53:55.916Z,95691.97
2023-12-19T04:57:00.111Z,95699.66
2023-12-19T05:00:06.075Z,95695.28
2023-12-19T05:03:10.333Z,95693.22
2023-12-19T05:06:19.674Z,95686.22
2023-12-19T05:09:23.096Z,95690.63
2023-12-19T05:12:27.412Z,95678.56
2023-12-19T05:15:34.089Z,95674.00
2023-12-19T05:18:38.872Z,95679.44
2023-12-19T05:21:42.057Z,95675.66
2023-12-19T05:24:45.767Z,95679.81
2023-12-19T05:27:50.522Z,95670.31
2023-12-19T05:30:57.919Z,95677.81
2023-12-19T05:34:01.761Z,95661.78
2023-12-19T05:37:05.675Z,95665.59
2023-12-19T05:40:10.253Z,95665.88
2023-12-19T05:43:15.471Z,95673.66
2023-12-19T05:46:19.468Z,95672.31
2023-12-19T05:49:22.460Z,95675.97
2023-12-19T05:52:26.065Z,95674.75
2023-12-19T05:55:29.868Z,95677.22
2023-12-19T05:58:33.626Z,95667.63
2023-12-19T06:01:44.392Z,95671.13
2023-12-19T06:04:48.517Z,95667.59
2023-12-19T06:07:52.711Z,95666.34
2023-12-19T06:10:58.078Z,95658.09
2023-12-19T06:14:02.867Z,95664.84
2023-12-19T06:17:06.477Z,95661.31
2023-12-19T06:20:14.469Z,95665.69
2023-12-19T06:23:18.247Z,95650.53
2023-12-19T06:26:21.615Z,95663.03
2023-12-19T06:29:26.990Z,95661.75
2023-12-19T06:32:30.714Z,95662.38
2023-12-19T06:35:34.832Z,95656.34
2023-12-19T06:38:39.269Z,95654.31
2023-12-19T06:41:43.497Z,95648.63
2023-12-19T06:44:48.058Z,95652.53
2023-12-19T06:47:51.722Z,95657.69
2023-12-19T06:50:55.555Z,95659.34
2023-12-19T06:53:59.581Z,95655.81
2023-12-19T06:57:03.306Z,95660.13
2023-12-19T07:00:08.564Z,95661.03
2023-12-19T07:03:12.164Z,95662.16
2023-12-19T07:06:16.808Z,95649.88
2023-12-19T07:09:20.648Z,95666.13
2023-12-19T07:12:24.990Z,95663.66
2023-12-19T07:15:28.724Z,95671.75
2023-12-19T07:18:33.464Z,95676.22
2023-12-19T07:21:37.785Z,95682.34
2023-12-19T07:24:41.848Z,95670.84
2023-12-19T07:27:46.811Z,95677.91
2023-12-19T07:30:51.002Z,95680.53
2023-12-19T07:34:01.863Z,95675.63
2023-12-19T07:37:06.524Z,95684.81
2023-12-19T07:40:12.363Z,95687.47
2023-12-19T07:43:16.381Z,95696.66
2023-12-19T07:46:20.936Z,95697.97
2023-12-19T07:49:25.013Z,95700.13
2023-12-19T07:52:29.792Z,95706.41
2023-12-19T07:55:33.094Z,95707.34
2023-12-19T07:58:36.841Z,95702.16
2023-12-19T08:01:41.447Z,95700.00
2023-12-19T08:04:45.147Z,95703.88
2023-12-19T08:07:52.101Z,95712.31
2023-12-19T08:10:55.800Z,95704.78
2023-12-19T08:13:59.332Z,95706.66
2023-12-19T08:17:03.377Z,95709.72
2023-12-19T08:20:09.766Z,95705.88
2023-12-19T08:23:12.930Z,95710.34
2023-12-19T08:26:16.674Z,95708.53
2023-12-19T08:29:20.658Z,95702.47
2023-12-19T08:32:26.264Z,95709.19
2023-12-19T08:35:31.190Z,95704.91
2023-12-19T08:38:35.935Z,95714.09
2023-12-19T08:41:39.757Z,95711.66
2023-12-19T08:44:43.797Z,95718.81
2023-12-19T08:47:48.992Z,95721.41
2023-12-19T08:50:53.191Z,95718.47
2023-12-19T08:53:57.892Z,95718.47
2023-12-19T08:57:01.282Z,95726.88
2023-12-19T09:00:05.233Z,95722.47
2023-12-19T09:03:09.439Z,95723.66
2023-12-19T09:06:13.211Z,95725.16
2023-12-19T09:09:17.084Z,95718.59
2023-12-19T09:12:20.704Z,95727.44
2023-12-19T09:15:24.817Z,95715.47
2023-12-19T09:18:28.080Z,95730.44
2023-12-19T09:21:33.572Z,95732.72
2023-12-19T09:24:37.384Z,95730.72
2023-12-19T09:27:41.892Z,95727.03
2023-12-19T09:30:45.956Z,95729.34
2023-12-19T09:33:50.222Z,95729.50
2023-12-19T09:36:57.245Z,95729.66
2023-12-19T09:40:02.839Z,95736.09
2023-12-19T09:43:06.211Z,95725.91
2023-12-19T09:46:10.454Z,95727.59
2023-12-19T09:49:14.687Z,95721.19
2023-12-19T09:52:18.735Z,95720.72
2023-12-19T09:55:22.799Z,95723.47
2023-12-19T09:58:30.134Z,95727.75
2023-12-19T10:01:35.568Z,95734.19
2023-12-19T10:04:38.684Z,95738.66
2023-12-19T10:07:43.702Z,95736.81
2023-12-19T10:10:58.407Z,95734.66
2023-12-19T10:14:13.205Z,95739.47
2023-12-19T10:17:19.341Z,95738.72
2023-12-19T10:20:26.551Z,95739.94
2023-12-19T10:23:30.255Z,95747.56
2023-12-19T10:26:35.139Z,95748.00
2023-12-19T10:29:39.134Z,95748.00
2023-12-19T10:32:43.082Z,95747.06
2023-12-19T10:35:47.685Z,95748.00
2023-12-19T10:38:51.882Z,95747.06
2023-12-19T10:42:06.603Z,95736.88
2023-12-19T10:45:11.303Z,95747.91
2023-12-19T10:48:15.118Z,95742.91
2023-12-19T10:51:43.753Z,95739.06
2023-12-19T10:54:47.624Z,95741.94
2023-12-19T10:57:52.402Z,95740.72
2023-12-19T11:00:57.017Z,95743.13
2023-12-19T11:04:04.681Z,95749.94
2023-12-19T11:07:14.418Z,95746.13
2023-12-19T11:10:22.415Z,95750.16
2023-12-19T11:13:30.783Z,95746.28
2023-12-19T11:16:43.963Z,95744.31
2023-12-19T11:20:03.373Z,95737.47
2023-12-19T11:23:34.252Z,95744.31
2023-12-19T11:26:44.716Z,95753.50
2023-12-19T11:29:53.176Z,95749.25
2023-12-19T11:32:56.147Z,95747.09
2023-12-19T11:36:13.349Z,95743.19
2023-12-19T11:39:27.842Z,95745.91
2023-12-19T11:42:52.193Z,95747.03
2023-12-19T11:46:17.386Z,95753.31
2023-12-19T11:49:39.732Z,95751.38
2023-12-19T11:52:44.214Z,95751.81
2023-12-19T11:55:48.985Z,95749.13
2023-12-19T11:58:53.184Z,95748.19
2023-12-19T12:01:57.240Z,95751.06
2023-12-19T12:05:18.283Z,95748.28
2023-12-19T12:08:26.763Z,95759.03
2023-12-19T12:11:29.811Z,95754.09
2023-12-19T12:14:34.578Z,95764.00
2023-12-19T12:17:38.441Z,95755.81
2023-12-19T12:20:42.521Z,95761.75
2023-12-19T12:23:45.453Z,95756.09
2023-12-19T12:26:53.517Z,95760.38
2023-12-19T12:29:59.634Z,95752.19
2023-12-19T12:33:07.276Z,95762.13
2023-12-19T12:36:12.836Z,95759.72
2023-12-19T12:39:25.804Z,95771.81
2023-12-19T12:42:30.770Z,95772.97
2023-12-19T12:45:35.370Z,95771.81
2023-12-19T12:48:41.579Z,95775.78
2023-12-19T12:51:45.479Z,95769.75
2023-12-19T12:54:48.440Z,95773.94
2023-12-19T12:58:02.690Z,95774.63
2023-12-19T13:01:07.145Z,95776.00
2023-12-19T13:04:11.348Z,95785.03
2023-12-19T13:07:16.533Z,95779.91
2023-12-19T13:10:19.645Z,95784.25
2023-12-19T13:13:22.919Z,95778.38
2023-12-19T13:16:27.498Z,95773.28
2023-12-19T13:19:31.058Z,95780.28
2023-12-19T13:22:34.661Z,95776.44
2023-12-19T13:25:42.627Z,95784.13
2023-12-19T13:28:46.297Z,95769.50
2023-12-19T13:31:50.873Z,95772.25
2023-12-19T13:34:54.572Z,95764.03
2023-12-19T13:37:57.505Z,95772.69
2023-12-19T13:41:02.368Z,95762.31
2023-12-19T13:47:50.171Z,95770.41
2023-12-19T13:50:53.224Z,95762.59
2023-12-19T13:53:56.363Z,95763.22
2023-12-19T13:57:00.926Z,95759.25
2023-12-19T14:00:06.252Z,95764.41
2023-12-19T14:03:16.086Z,95755.06
2023-12-19T14:06:20.085Z,95754.22
2023-12-19T14:09:24.496Z,95750.00
2023-12-19T14:12:28.415Z,95753.59
2023-12-19T14:15:33.373Z,95757.09
2023-12-19T14:18:37.660Z,95755.91
2023-12-19T14:21:42.077Z,95757.63
2023-12-19T14:24:45.255Z,95754.22
2023-12-19T14:27:49.599Z,95753.03
2023-12-19T14:30:52.706Z,95749.09
2023-12-19T14:33:56.995Z,95746.00
2023-12-19T14:37:00.682Z,95754.28
2023-12-19T14:40:05.910Z,95743.63
2023-12-19T14:43:09.016Z,95746.72
2023-12-19T14:46:13.348Z,95747.13
2023-12-19T14:49:17.763Z,95749.78
2023-12-19T14:52:21.385Z,95745.72
2023-12-19T14:55:25.207Z,95746.78
2023-12-19T14:58:29.847Z,95755.84
2023-12-19T15:01:33.975Z,95753.56
2023-12-19T15:04:38.283Z,95751.66
2023-12-19T15:07:42.796Z,95753.19
2023-12-19T15:10:46.996Z,95757.16
2023-12-19T15:13:49.879Z,95754.22
2023-12-19T15:16:54.346Z,95758.88
2023-12-19T15:19:57.473Z,95761.75
2023-12-19T15:23:01.277Z,95757.00
2023-12-19T15:26:05.351Z,95750.81
2023-12-19T15:29:14.208Z,95755.81
2023-12-19T15:32:17.926Z,95760.22
2023-12-19T15:35:22.345Z,95764.94
2023-12-19T15:38:26.231Z,95758.97
2023-12-19T15:41:30.348Z,95761.09
2023-12-19T15:44:34.048Z,95763.97
2023-12-19T15:47:38.606Z,95762.38
2023-12-19T15:50:41.915Z,95754.28
2023-12-19T15:53:45.423Z,95754.50
2023-12-19T15:56:48.553Z,95752.69
2023-12-19T15:59:52.144Z,95749.34
2023-12-19T16:02:55.474Z,95746.41
2023-12-19T16:05:59.994Z,95747.69
2023-12-19T16:09:03.675Z,95746.66
2023-12-19T16:12:09.411Z,95754.44
2023-12-19T16:15:13.253Z,95749.53
2023-12-19T16:18:16.738Z,95749.53
2023-12-19T16:21:23.312Z,95754.50
2023-12-19T16:24:27.072Z,95759.94
2023-12-19T16:27:30.988Z,95756.13
2023-12-19T16:30:34.996Z,95756.88
2023-12-19T16:33:40.206Z,95760.00
2023-12-19T16:36:46.678Z,95749.63
2023-12-19T16:39:55.346Z,95756.75
2023-12-19T16:42:58.997Z,95756.06
2023-12-19T16:46:03.075Z,95762.72
2023-12-19T16:49:06.726Z,95761.44
2023-12-19T16:52:09.970Z,95749.91
2023-12-19T16:55:13.195Z,95754.47
2023-12-19T16:58:16.914Z,95760.16
2023-12-19T17:01:19.984Z,95768.41
2023-12-19T17:04:24.748Z,95772.88
2023-12-19T17:07:28.942Z,95775.75
2023-12-19T17:10:32.347Z,95769.63
2023-12-19T17:13:35.264Z,95766.31
2023-12-19T17:16:40.660Z,95765.44
2023-12-19T17:19:43.611Z,95769.38
2023-12-19T17:22:47.088Z,95765.66
2023-12-19T17:25:50.833Z,95774.13
2023-12-19T17:28:54.484Z,95776.78
2023-12-19T17:31:58.214Z,95779.44
2023-12-19T17:35:01.341Z,95783.78
2023-12-19T17:38:04.525Z,95787.25
2023-12-19T17:41:07.497Z,95788.75
2023-12-19T17:44:10.866Z,95780.56
2023-12-19T17:47:13.917Z,95791.66
2023-12-19T17:50:16.961Z,95782.41
2023-12-19T17:53:20.723Z,95793.28
2023-12-19T17:56:23.806Z,95789.31
2023-12-19T17:59:27.124Z,95796.22
2023-12-19T18:02:32.435Z,95800.19
2023-12-19T18:05:37.105Z,95809.28
2023-12-19T18:08:42.210Z,95804.44
2023-12-19T18:11:46.557Z,95816.31
2023-12-19T18:14:49.573Z,95819.63
2023-12-19T18:17:54.940Z,95815.06
2023-12-19T18:21:02.250Z,95814.06
2023-12-19T18:24:07.106Z,95812.59
2023-12-19T18:27:11.432Z,95818.03
2023-12-19T18:30:15.213Z,95808.94
2023-12-19T18:33:19.214Z,95818.16
2023-12-19T18:36:26.220Z,95814.53
2023-12-19T18:39:29.450Z,95824.38
2023-12-19T18:42:32.952Z,95830.38
2023-12-19T18:45:37.072Z,95819.66
2023-12-19T18:48:39.919Z,95820.53
2023-12-19T18:51:43.231Z,95818.81
2023-12-19T18:54:46.146Z,95811.38
2023-12-19T18:57:49.895Z,95822.31
2023-12-19T19:00:53.472Z,95823.63
2023-12-19T19:03:57.344Z,95828.59
2023-12-19T19:07:01.572Z,95820.19
2023-12-19T19:10:05.398Z,95817.25
2023-12-19T19:13:10.002Z,95816.94
2023-12-19T19:16:13.694Z,95815.38
2023-12-19T19:19:17.152Z,95808.22
2023-12-19T19:22:20.765Z,95809.38
2023-12-19T19:25:23.893Z,95803.91
2023-12-19T19:28:27.632Z,95808.16
2023-12-19T19:31:31.862Z,95798.66
2023-12-19T19:34:41.141Z,95784.94
2023-12-19T19:37:44.333Z,95786.72
2023-12-19T19:40:49.549Z,95780.66
2023-12-19T19:43:55.636Z,95781.50
2023-12-19T19:46:58.666Z,95776.66
2023-12-19T19:50:01.530Z,95775.13
2023-12-19T19:53:04.686Z,95774.47
2023-12-19T19:56:08.367Z,95771.72
2023-12-19T19:59:12.464Z,95769.28
2023-12-19T20:02:16.049Z,95766.75
2023-12-19T20:05:19.268Z,95772.53
2023-12-19T20:08:22.181Z,95765.31
2023-12-19T20:11:25.688Z,95762.19
2023-12-19T20:14:28.482Z,95756.59
2023-12-19T20:17:31.513Z,95749.75
2023-12-19T20:20:34.375Z,95754.75
2023-12-19T20:23:37.338Z,95756.81
2023-12-19T20:26:44.132Z,95766.56
2023-12-19T20:29:48.225Z,95765.69
2023-12-19T20:32:52.003Z,95762.97
2023-12-19T20:35:55.172Z,95768.84
2023-12-19T20:38:58.834Z,95767.19
2023-12-19T20:42:03.115Z,95762.38
2023-12-19T20:45:06.820Z,95763.13
2023-12-19T20:48:11.963Z,95766.91
2023-12-19T20:51:16.852Z,95756.06
2023-12-19T20:54:20.977Z,95748.75
2023-12-19T20:57:24.484Z,95757.19
2023-12-19T21:00:28.347Z,95752.06
2023-12-19T21:03:31.696Z,95752.72
2023-12-19T21:06:35.156Z,95748.09
2023-12-19T21:09:38.346Z,95751.78
2023-12-19T21:12:42.693Z,95743.34
2023-12-19T21:15:45.990Z,95755.00
2023-12-19T21:18:50.079Z,95750.56
2023-12-19T21:21:53.807Z,95741.28
2023-12-19T21:24:57.831Z,95748.47
2023-12-19T21:28:00.911Z,95751.56
2023-12-19T21:31:05.397Z,95735.69
2023-12-19T21:34:12.503Z,95735.69
2023-12-19T21:37:16.272Z,95735.94
2023-12-19T21:40:20.308Z,95748.03
2023-12-19T21:43:24.297Z,95745.94
2023-12-19T21:46:28.101Z,95743.75
2023-12-19T21:49:32.112Z,95753.00
2023-12-19T21:52:35.893Z,95745.41
2023-12-19T21:55:40.331Z,95748.16
2023-12-19T21:58:43.889Z,95746.38
2023-12-19T22:01:47.867Z,95749.94
2023-12-19T22:04:51.659Z,95740.97
2023-12-19T22:07:55.840Z,95750.13
2023-12-19T22:10:59.812Z,95754.53
2023-12-19T22:14:06.826Z,95748.25
2023-12-19T22:17:10.826Z,95761.34
2023-12-19T22:20:14.710Z,95749.91
2023-12-19T22:23:17.886Z,95756.06
2023-12-19T22:26:21.770Z,95756.81
2023-12-19T22:29:25.942Z,95760.25
2023-12-19T22:32:29.053Z,95770.47
2023-12-19T22:35:32.797Z,95770.91
2023-12-19T22:38:37.624Z,95778.91
2023-12-19T22:41:41.687Z,95768.59
2023-12-19T22:44:45.350Z,95764.88
2023-12-19T22:47:49.613Z,95767.03
2023-12-19T22:50:53.943Z,95761.72
2023-12-19T22:53:58.017Z,95762.25
2023-12-19T22:57:01.410Z,95765.25
2023-12-19T23:00:08.686Z,95760.72
2023-12-19T23:03:12.784Z,95775.41
2023-12-19T23:06:21.802Z,95770.00
2023-12-19T23:09:25.803Z,95769.25
2023-12-19T23:12:29.800Z,95772.00
2023-12-19T23:15:35.327Z,95769.88
2023-12-19T23:18:41.760Z,95773.66
2023-12-19T23:21:46.089Z,95768.09
2023-12-19T23:24:50.572Z,95776.88
2023-12-19T23:27:55.518Z,95776.19
2023-12-19T23:30:59.558Z,95775.13
2023-12-19T23:34:02.745Z,95776.47
2023-12-19T23:37:07.178Z,95781.94
2023-12-19T23:40:11.267Z,95789.97
2023-12-19T23:43:20.113Z,95771.91
2023-12-19T23:46:24.602Z,95777.66
2023-12-19T23:49:28.760Z,95782.63
2023-12-19T23:52:32.429Z,95798.16
2023-12-19T23:55:35.696Z,95795.25
2023-12-19T23:58:39.345Z,95792.94
